Hlavní strana
METAR-TAF:

METAR-TAF

Letiště :

Visby, Gotland, Švédsko

zeměpisná šířka: 57-40N, zeměpisná délka: 018-21E, výška: 51 m

Aktuální stav počasí

Zpráva byla vytvořena před 22 minutami, v 05:20 UTC
Jižní vítr 7 kt
Teplota 0°C
Vlhkost vzduchu 100%
Tlak 1002 hPa
Viditelnost 10 km a více

METAR: ESSV 290520Z AUTO 19007KT 9999 OVC004/// 00/M00 Q1002

Čas: 06:42 (05:42 UTC)

Předpověď počasí

Zpráva byla vytvořena před 12 minutami, v 05:30 UTC
Předpověď platná od 29 v 06 UTC do 29 v 15 UTC
Jihozápadní vítr 8 kt
Viditelnost 10 km a více
Polojasno ve výšce 500 ft
Dočasný
od 29 v 06 UTC do 29 v 08 UTC
Oblačno až skoro zataženo ve výšce 400 ft
Dočasný
od 29 v 08 UTC do 29 v 15 UTC
Oblačno až skoro zataženo ve výšce 1300 ft
Změna
od 29 v 13 UTC do 29 v 15 UTC
Jihojihovýchodní vítr 10 kt

TAF: ESSV 290530Z 2906/2915 22008KT 9999 SCT005 TEMPO 2906/2908 BKN004 TEMPO 2908/2915 BKN013 BECMG 2913/2915 16010KT

Stav a předpovědi počasí z více než 4 000 letišť (zprávy METAR a TAF).

Červené a žluté tečky na mapě představují dostupné meteorologické stanice.

Když kurzor umístíte na tečku, zobrazí se název stanice.

Pak kliknutím zobrazíte stav a předpověď počasí.

Chcete-li změnit mapu, kliknutím na zelené tlačítko se znaménkem +mapu přiblížíte, kliknutím na zelené tlačítko se znaménkem – mapu oddálíte a kliknutím na zelené šipky přejdete na sousední mapy.


METAR-TAF: